createdAt,value
2022-12-18T00:01:29.605Z,-5.39
2022-12-18T00:03:56.894Z,-5.36
2022-12-18T00:06:24.981Z,-5.41
2022-12-18T00:08:51.895Z,-5.42
2022-12-18T00:11:20.730Z,-5.41
2022-12-18T00:13:48.141Z,-5.43
2022-12-18T00:16:17.678Z,-5.44
2022-12-18T00:18:44.076Z,-5.45
2022-12-18T00:21:12.776Z,-5.37
2022-12-18T00:23:41.537Z,-5.32
2022-12-18T00:26:16.176Z,-5.23
2022-12-18T00:28:43.556Z,-5.23
2022-12-18T00:31:13.172Z,-5.23
2022-12-18T00:33:40.181Z,-5.24
2022-12-18T00:36:16.736Z,-5.20
2022-12-18T00:38:44.187Z,-5.19
2022-12-18T00:41:12.426Z,-5.23
2022-12-18T00:43:40.301Z,-5.26
2022-12-18T00:46:07.181Z,-5.31
2022-12-18T00:48:33.709Z,-5.36
2022-12-18T00:51:00.159Z,-5.38
2022-12-18T00:53:26.523Z,-5.39
2022-12-18T00:55:52.897Z,-5.36
2022-12-18T00:58:19.316Z,-5.31
2022-12-18T01:00:45.822Z,-5.26
2022-12-18T01:03:14.655Z,-5.25
2022-12-18T01:05:42.838Z,-5.24
2022-12-18T01:08:09.696Z,-5.26
2022-12-18T01:10:36.139Z,-5.30
2022-12-18T01:13:02.553Z,-5.32
2022-12-18T01:15:28.949Z,-5.32
2022-12-18T01:17:55.378Z,-5.29
2022-12-18T01:20:21.826Z,-5.32
2022-12-18T01:22:48.275Z,-5.34
2022-12-18T01:25:14.665Z,-5.31
2022-12-18T01:27:41.077Z,-5.27
2022-12-18T01:30:08.276Z,-5.26
2022-12-18T01:32:34.936Z,-5.25
2022-12-18T01:35:01.351Z,-5.26
2022-12-18T01:37:27.775Z,-5.25
2022-12-18T01:39:55.220Z,-5.25
2022-12-18T01:42:21.908Z,-5.23
2022-12-18T01:44:56.444Z,-5.23
2022-12-18T01:47:42.969Z,-5.28
2022-12-18T01:50:31.398Z,-5.27
2022-12-18T01:53:19.834Z,-5.26
2022-12-18T01:55:48.785Z,-5.23
2022-12-18T01:58:16.813Z,-5.22
2022-12-18T02:00:43.686Z,-5.18
2022-12-18T02:03:11.701Z,-5.23
2022-12-18T02:05:42.374Z,-5.31
2022-12-18T02:08:17.190Z,-5.41
2022-12-18T02:11:15.069Z,-5.48
2022-12-18T02:13:55.142Z,-5.51
2022-12-18T02:16:46.153Z,-5.50
2022-12-18T02:19:40.620Z,-5.52
2022-12-18T02:22:27.503Z,-5.63
2022-12-18T02:25:39.127Z,-5.64
2022-12-18T02:28:10.349Z,-5.55
2022-12-18T02:30:38.760Z,-5.56
2022-12-18T02:33:08.091Z,-5.58
2022-12-18T02:35:36.245Z,-5.55
2022-12-18T02:38:05.187Z,-5.57
2022-12-18T02:40:32.598Z,-5.61
2022-12-18T02:43:12.894Z,-5.64
2022-12-18T02:45:55.852Z,-5.70
2022-12-18T02:48:40.911Z,-5.74
2022-12-18T02:51:19.244Z,-5.71
2022-12-18T02:54:05.247Z,-5.69
2022-12-18T02:56:52.729Z,-5.68
2022-12-18T02:59:26.461Z,-5.71
2022-12-18T03:01:59.739Z,-5.77
2022-12-18T03:04:29.044Z,-5.78
2022-12-18T03:06:59.099Z,-5.81
2022-12-18T03:09:32.783Z,-5.84
2022-12-18T03:12:30.214Z,-5.83
2022-12-18T03:15:17.696Z,-5.81
2022-12-18T03:17:49.952Z,-5.91
2022-12-18T03:20:22.212Z,-5.88
2022-12-18T03:22:54.173Z,-5.83
2022-12-18T03:25:21.250Z,-5.74
2022-12-18T03:27:51.741Z,-5.72
2022-12-18T03:30:18.968Z,-5.75
2022-12-18T03:32:45.283Z,-5.77
2022-12-18T03:35:13.814Z,-5.85
2022-12-18T03:37:40.673Z,-5.86
2022-12-18T03:40:07.694Z,-5.91
2022-12-18T03:43:03.896Z,-5.88
2022-12-18T03:45:42.738Z,-5.89
2022-12-18T03:48:18.526Z,-5.91
2022-12-18T03:50:58.964Z,-5.94
2022-12-18T03:53:44.904Z,-5.97
2022-12-18T03:56:13.267Z,-5.99
2022-12-18T03:58:41.060Z,-6.00
2022-12-18T04:01:10.929Z,-6.03
2022-12-18T04:03:39.126Z,-6.04
2022-12-18T04:06:06.919Z,-6.00
2022-12-18T04:08:35.694Z,-6.01
2022-12-18T04:11:03.386Z,-5.96
2022-12-18T04:13:37.751Z,-5.92
2022-12-18T04:16:04.884Z,-5.91
2022-12-18T04:18:31.640Z,-5.94
2022-12-18T04:20:58.085Z,-5.96
2022-12-18T04:23:24.423Z,-5.94
2022-12-18T04:25:50.802Z,-5.96
2022-12-18T04:28:17.345Z,-5.98
2022-12-18T04:30:43.794Z,-5.95
2022-12-18T04:33:19.878Z,-5.93
2022-12-18T04:35:46.560Z,-5.91
2022-12-18T04:38:12.994Z,-5.91
2022-12-18T04:40:39.918Z,-5.88
2022-12-18T04:43:08.316Z,-5.88
2022-12-18T04:45:35.114Z,-5.86
2022-12-18T04:48:02.727Z,-5.84
2022-12-18T04:50:29.276Z,-5.86
2022-12-18T04:52:55.800Z,-5.84
2022-12-18T04:55:28.092Z,-5.83
2022-12-18T04:57:54.841Z,-5.83
2022-12-18T05:00:21.819Z,-5.85
2022-12-18T05:02:48.355Z,-5.84
2022-12-18T05:05:15.428Z,-5.88
2022-12-18T05:07:41.938Z,-5.93
2022-12-18T05:10:08.957Z,-5.96
2022-12-18T05:12:56.721Z,-5.98
2022-12-18T05:15:23.116Z,-5.97
2022-12-18T05:17:49.514Z,-5.97
2022-12-18T05:20:16.089Z,-5.93
2022-12-18T05:22:42.547Z,-5.91
2022-12-18T05:25:09.448Z,-5.92
2022-12-18T05:27:36.099Z,-5.96
2022-12-18T05:30:02.718Z,-6.02
2022-12-18T05:32:29.118Z,-6.10
2022-12-18T05:34:55.541Z,-6.19
2022-12-18T05:37:21.899Z,-6.23
2022-12-18T05:39:48.266Z,-6.30
2022-12-18T05:42:15.257Z,-6.35
2022-12-18T05:44:41.679Z,-6.39
2022-12-18T05:47:08.040Z,-6.47
2022-12-18T05:49:34.450Z,-6.47
2022-12-18T05:52:00.827Z,-6.51
2022-12-18T05:54:30.359Z,-6.53
2022-12-18T05:56:56.723Z,-6.52
2022-12-18T05:59:23.179Z,-6.53
2022-12-18T06:01:49.873Z,-6.56
2022-12-18T06:04:16.590Z,-6.55
2022-12-18T06:06:42.983Z,-6.51
2022-12-18T06:09:10.494Z,-6.51
2022-12-18T06:11:38.015Z,-6.51
2022-12-18T06:14:05.551Z,-6.47
2022-12-18T06:16:32.645Z,-6.48
2022-12-18T06:19:05.188Z,-6.52
2022-12-18T06:21:32.929Z,-6.52
2022-12-18T06:24:00.750Z,-6.59
2022-12-18T06:26:28.494Z,-6.65
2022-12-18T06:28:55.465Z,-6.64
2022-12-18T06:31:21.931Z,-6.69
2022-12-18T06:33:48.427Z,-6.70
2022-12-18T06:36:15.385Z,-6.73
2022-12-18T06:38:44.148Z,-6.76
2022-12-18T06:41:13.241Z,-6.77
2022-12-18T06:43:40.405Z,-6.76
2022-12-18T06:46:07.328Z,-6.78
2022-12-18T06:48:34.492Z,-6.80
2022-12-18T06:51:01.096Z,-6.77
2022-12-18T06:53:27.713Z,-6.73
2022-12-18T06:56:01.966Z,-6.74
2022-12-18T06:58:31.539Z,-6.75
2022-12-18T07:01:06.785Z,-6.79
2022-12-18T07:03:33.338Z,-6.74
2022-12-18T07:05:59.902Z,-6.68
2022-12-18T07:08:26.375Z,-6.66
2022-12-18T07:10:56.237Z,-6.63
2022-12-18T07:13:23.731Z,-6.62
2022-12-18T07:15:50.537Z,-6.60
2022-12-18T07:18:17.052Z,-6.60
2022-12-18T07:20:43.400Z,-6.64
2022-12-18T07:23:09.819Z,-6.62
2022-12-18T07:25:37.863Z,-6.59
2022-12-18T07:28:05.085Z,-6.62
2022-12-18T07:30:31.505Z,-6.70
2022-12-18T07:32:57.904Z,-6.57
2022-12-18T07:35:25.302Z,-6.54
2022-12-18T07:37:52.106Z,-6.52
2022-12-18T07:40:18.591Z,-6.47
2022-12-18T07:42:44.987Z,-6.37
2022-12-18T07:45:11.801Z,-6.37
2022-12-18T07:47:38.360Z,-6.38
2022-12-18T07:50:06.317Z,-6.40
2022-12-18T07:52:32.718Z,-6.40
2022-12-18T07:54:59.693Z,-6.40
2022-12-18T08:00:13.301Z,-6.26
2022-12-18T08:02:39.957Z,-6.27
2022-12-18T08:05:07.084Z,-6.28
2022-12-18T08:07:33.581Z,-6.25
2022-12-18T08:09:59.989Z,-6.22
2022-12-18T08:12:26.416Z,-6.21
2022-12-18T08:14:52.833Z,-6.13
2022-12-18T08:17:21.134Z,-6.17
2022-12-18T08:19:47.498Z,-6.16
2022-12-18T08:22:13.937Z,-6.17
2022-12-18T08:24:40.306Z,-6.19
2022-12-18T08:27:28.990Z,-6.16
2022-12-18T08:29:53.053Z,-6.12
2022-12-18T08:32:19.511Z,-6.08
2022-12-18T08:34:45.974Z,-6.02
2022-12-18T08:37:12.378Z,-5.99
2022-12-18T08:39:38.799Z,-5.93
2022-12-18T08:42:23.660Z,-5.83
2022-12-18T08:44:50.007Z,-5.80
2022-12-18T08:47:16.416Z,-5.72
2022-12-18T08:49:42.753Z,-5.69
2022-12-18T08:52:09.860Z,-5.64
2022-12-18T08:54:36.353Z,-5.58
2022-12-18T08:57:03.123Z,-5.48
2022-12-18T08:59:29.514Z,-5.43
2022-12-18T09:01:56.433Z,-5.39
2022-12-18T09:04:23.300Z,-5.33
2022-12-18T09:06:49.645Z,-5.29
2022-12-18T09:09:16.033Z,-5.27
2022-12-18T09:11:42.470Z,-5.18
2022-12-18T09:14:10.538Z,-5.14
2022-12-18T09:16:37.247Z,-5.09
2022-12-18T09:19:06.027Z,-5.03
2022-12-18T09:21:37.036Z,-5.01
2022-12-18T09:24:04.235Z,-4.97
2022-12-18T09:26:31.613Z,-4.93
2022-12-18T09:28:58.106Z,-4.87
2022-12-18T09:31:25.786Z,-4.82
2022-12-18T09:33:52.549Z,-4.76
2022-12-18T09:36:19.615Z,-4.71
2022-12-18T09:38:46.110Z,-4.64
2022-12-18T09:41:34.452Z,-4.56
2022-12-18T09:44:06.257Z,-4.51
2022-12-18T09:46:38.945Z,-4.45
2022-12-18T09:49:12.874Z,-4.39
2022-12-18T09:51:48.208Z,-4.36
2022-12-18T09:54:31.452Z,-4.34
2022-12-18T09:56:57.859Z,-4.27
2022-12-18T09:59:37.321Z,-4.24
2022-12-18T10:02:25.163Z,-4.21
2022-12-18T10:05:04.239Z,-4.15
2022-12-18T10:07:41.486Z,-4.11
2022-12-18T10:10:17.966Z,-4.06
2022-12-18T10:13:04.863Z,-4.05
2022-12-18T10:15:40.941Z,-4.03
2022-12-18T10:18:30.848Z,-4.00
2022-12-18T10:21:09.927Z,-3.97
2022-12-18T10:24:09.273Z,-3.95
2022-12-18T10:26:35.914Z,-3.96
2022-12-18T10:29:05.696Z,-3.99
2022-12-18T10:31:32.622Z,-3.93
2022-12-18T10:33:59.157Z,-3.89
2022-12-18T10:36:26.059Z,-3.87
2022-12-18T10:38:52.520Z,-3.89
2022-12-18T10:41:19.510Z,-3.87
2022-12-18T10:43:48.504Z,-3.87
2022-12-18T10:46:18.399Z,-3.87
2022-12-18T10:48:47.547Z,-3.85
2022-12-18T10:51:40.540Z,-3.83
2022-12-18T10:54:16.314Z,-3.86
2022-12-18T10:56:44.291Z,-3.86
2022-12-18T10:59:13.754Z,-3.83
2022-12-18T11:01:51.551Z,-3.87
2022-12-18T11:04:50.385Z,-3.81
2022-12-18T11:07:16.809Z,-3.78
2022-12-18T11:09:43.265Z,-3.77
2022-12-18T11:12:23.498Z,-3.74
2022-12-18T11:14:52.813Z,-3.70
2022-12-18T11:17:37.222Z,-3.65
2022-12-18T11:20:10.360Z,-3.62
2022-12-18T11:22:39.220Z,-3.58
2022-12-18T11:25:35.386Z,-3.53
2022-12-18T11:28:05.492Z,-3.50
2022-12-18T11:30:37.120Z,-3.51
2022-12-18T11:33:15.716Z,-3.48
2022-12-18T11:35:57.011Z,-3.41
2022-12-18T11:38:30.622Z,-3.38
2022-12-18T11:41:23.509Z,-3.33
2022-12-18T11:44:01.941Z,-3.38
2022-12-18T11:46:44.391Z,-3.36
2022-12-18T11:49:28.721Z,-3.33
2022-12-18T11:52:22.494Z,-3.29
2022-12-18T11:54:52.775Z,-3.24
2022-12-18T11:57:40.347Z,-3.21
2022-12-18T12:00:20.662Z,-3.24
2022-12-18T12:03:08.793Z,-3.24
2022-12-18T12:05:56.726Z,-3.24
2022-12-18T12:08:41.972Z,-3.16
2022-12-18T12:11:17.466Z,-3.18
2022-12-18T12:14:25.444Z,-3.14
2022-12-18T12:17:00.004Z,-3.08
2022-12-18T12:19:32.246Z,-3.05
2022-12-18T12:22:14.826Z,-3.03
2022-12-18T12:24:56.871Z,-3.00
2022-12-18T12:27:40.746Z,-2.97
2022-12-18T12:30:21.384Z,-2.96
2022-12-18T12:32:57.207Z,-2.96
2022-12-18T12:35:47.822Z,-2.93
2022-12-18T12:38:24.865Z,-2.88
2022-12-18T12:41:03.393Z,-2.87
2022-12-18T12:43:51.611Z,-2.83
2022-12-18T12:46:22.402Z,-2.80
2022-12-18T12:49:02.191Z,-2.81
2022-12-18T12:51:38.295Z,-2.81
2022-12-18T12:54:11.329Z,-2.77
2022-12-18T12:56:58.995Z,-2.79
2022-12-18T12:59:38.838Z,-2.81
2022-12-18T13:02:45.822Z,-2.82
2022-12-18T13:05:30.722Z,-2.80
2022-12-18T13:08:00.316Z,-2.78
2022-12-18T13:10:34.091Z,-2.78
2022-12-18T13:13:00.556Z,-2.72
2022-12-18T13:15:36.818Z,-2.69
2022-12-18T13:18:09.321Z,-2.71
2022-12-18T13:20:50.830Z,-2.70
2022-12-18T13:23:26.574Z,-2.74
2022-12-18T13:25:54.001Z,-2.71
2022-12-18T13:28:42.139Z,-2.71
2022-12-18T13:31:08.686Z,-2.72
2022-12-18T13:34:01.930Z,-2.74
2022-12-18T13:36:28.078Z,-2.74
2022-12-18T13:42:06.270Z,-2.74
2022-12-18T13:44:40.861Z,-2.77
2022-12-18T13:47:34.351Z,-2.75
2022-12-18T13:50:03.720Z,-2.74
2022-12-18T13:52:37.630Z,-2.73
2022-12-18T13:55:15.659Z,-2.72
2022-12-18T13:57:42.266Z,-2.74
2022-12-18T14:00:23.987Z,-2.71
2022-12-18T14:02:51.697Z,-2.69
2022-12-18T14:05:24.592Z,-2.69
2022-12-18T14:07:51.400Z,-2.68
2022-12-18T14:10:41.932Z,-2.68
2022-12-18T14:13:07.994Z,-2.65
2022-12-18T14:15:40.331Z,-2.65
2022-12-18T14:18:22.715Z,-2.62
2022-12-18T14:20:53.142Z,-2.61
2022-12-18T14:23:41.605Z,-2.58
2022-12-18T14:26:30.269Z,-2.57
2022-12-18T14:28:58.173Z,-2.54
2022-12-18T14:31:26.991Z,-2.53
2022-12-18T14:33:54.461Z,-2.51
2022-12-18T14:36:27.013Z,-2.52
2022-12-18T14:38:55.784Z,-2.50
2022-12-18T14:41:23.628Z,-2.48
2022-12-18T14:43:52.796Z,-2.46
2022-12-18T14:46:30.209Z,-2.47
2022-12-18T14:48:58.047Z,-2.45
2022-12-18T14:51:27.639Z,-2.45
2022-12-18T14:53:58.731Z,-2.44
2022-12-18T14:56:31.233Z,-2.40
2022-12-18T14:59:00.737Z,-2.38
2022-12-18T15:01:38.415Z,-2.39
2022-12-18T15:04:23.413Z,-2.40
2022-12-18T15:06:49.829Z,-2.40
2022-12-18T15:09:25.562Z,-2.39
2022-12-18T15:11:58.587Z,-2.40
2022-12-18T15:14:30.824Z,-2.39
2022-12-18T15:16:58.950Z,-2.37
2022-12-18T15:19:46.279Z,-2.34
2022-12-18T15:22:19.179Z,-2.34
2022-12-18T15:24:45.682Z,-2.34
2022-12-18T15:27:47.649Z,-2.33
2022-12-18T15:30:21.324Z,-2.33
2022-12-18T15:32:48.640Z,-2.34
2022-12-18T15:35:26.558Z,-2.32
2022-12-18T15:37:53.414Z,-2.33
2022-12-18T15:40:24.869Z,-2.33
2022-12-18T15:43:13.508Z,-2.33
2022-12-18T15:45:40.079Z,-2.32
2022-12-18T15:48:23.415Z,-2.32
2022-12-18T15:50:52.802Z,-2.31
2022-12-18T15:53:19.874Z,-2.30
2022-12-18T15:56:04.999Z,-2.27
2022-12-18T15:58:31.356Z,-2.26
2022-12-18T16:00:59.690Z,-2.18
2022-12-18T16:03:26.118Z,-2.18
2022-12-18T16:05:52.911Z,-2.18
2022-12-18T16:08:20.707Z,-2.17
2022-12-18T16:10:47.202Z,-2.13
2022-12-18T16:13:19.535Z,-2.12
2022-12-18T16:15:45.988Z,-2.14
2022-12-18T16:18:12.441Z,-2.12
2022-12-18T16:20:39.586Z,-2.13
2022-12-18T16:23:06.017Z,-2.11
2022-12-18T16:25:32.521Z,-2.11
2022-12-18T16:27:58.939Z,-2.11
2022-12-18T16:30:32.026Z,-2.09
2022-12-18T16:33:04.533Z,-2.09
2022-12-18T16:35:31.025Z,-2.08
2022-12-18T16:37:57.465Z,-2.06
2022-12-18T16:40:23.940Z,-2.05
2022-12-18T16:42:50.371Z,-2.06
2022-12-18T16:45:18.270Z,-2.03
2022-12-18T16:47:45.098Z,-2.03
2022-12-18T16:50:12.064Z,-2.03
2022-12-18T16:52:38.902Z,-2.02
2022-12-18T16:55:05.811Z,-1.99
2022-12-18T16:57:32.431Z,-1.98
2022-12-18T17:00:04.633Z,-1.96
2022-12-18T17:02:32.323Z,-1.95
2022-12-18T17:04:59.318Z,-1.97
2022-12-18T17:07:27.131Z,-2.00
2022-12-18T17:09:54.268Z,-1.95
2022-12-18T17:12:21.779Z,-1.94
2022-12-18T17:14:48.198Z,-1.93
2022-12-18T17:17:23.545Z,-1.92
2022-12-18T17:19:51.924Z,-1.90
2022-12-18T17:22:19.270Z,-1.90
2022-12-18T17:24:47.009Z,-1.90
2022-12-18T17:27:13.575Z,-1.91
2022-12-18T17:29:45.424Z,-1.91
2022-12-18T17:32:14.040Z,-1.91
2022-12-18T17:34:40.664Z,-1.92
2022-12-18T17:37:07.099Z,-1.89
2022-12-18T17:39:33.681Z,-1.91
2022-12-18T17:42:00.820Z,-1.92
2022-12-18T17:44:27.239Z,-1.90
2022-12-18T17:46:53.769Z,-1.91
2022-12-18T17:49:20.346Z,-1.93
2022-12-18T17:51:46.920Z,-1.89
2022-12-18T17:54:13.513Z,-1.91
2022-12-18T17:56:39.993Z,-1.87
2022-12-18T17:59:07.135Z,-1.87
2022-12-18T18:01:35.124Z,-1.87
2022-12-18T18:04:05.171Z,-1.84
2022-12-18T18:06:31.639Z,-1.81
2022-12-18T18:09:00.944Z,-1.80
2022-12-18T18:11:46.028Z,-1.80
2022-12-18T18:14:14.141Z,-1.79
2022-12-18T18:16:43.283Z,-1.77
2022-12-18T18:19:12.723Z,-1.75
2022-12-18T18:21:41.361Z,-1.74
2022-12-18T18:24:09.634Z,-1.73
2022-12-18T18:26:36.979Z,-1.70
2022-12-18T18:29:05.704Z,-1.71
2022-12-18T18:31:35.316Z,-1.72
2022-12-18T18:34:07.175Z,-1.70
2022-12-18T18:36:34.600Z,-1.69
2022-12-18T18:39:01.398Z,-1.69
2022-12-18T18:41:29.634Z,-1.65
2022-12-18T18:43:57.891Z,-1.61
2022-12-18T18:46:25.031Z,-1.59
2022-12-18T18:48:51.516Z,-1.54
2022-12-18T18:51:21.362Z,-1.49
2022-12-18T18:53:49.998Z,-1.45
2022-12-18T18:56:56.538Z,-1.41
2022-12-18T18:59:06.447Z,-1.37
2022-12-18T19:01:33.146Z,-1.33
2022-12-18T19:04:03.247Z,-1.29
2022-12-18T19:06:29.981Z,-1.28
2022-12-18T19:08:58.254Z,-1.25
2022-12-18T19:11:44.314Z,-1.22
2022-12-18T19:14:12.968Z,-1.20
2022-12-18T19:16:39.677Z,-1.13
2022-12-18T19:19:06.811Z,-1.15
2022-12-18T19:21:34.816Z,-1.14
2022-12-18T19:24:02.599Z,-1.12
2022-12-18T19:26:29.347Z,-1.13
2022-12-18T19:29:02.261Z,-1.05
2022-12-18T19:31:34.849Z,-0.96
2022-12-18T19:34:02.557Z,-0.91
2022-12-18T19:36:30.883Z,-0.92
2022-12-18T19:39:00.095Z,-0.90
2022-12-18T19:41:31.615Z,-0.88
2022-12-18T19:43:59.555Z,-0.88
2022-12-18T19:46:26.081Z,-0.92
2022-12-18T19:48:52.946Z,-0.92
2022-12-18T19:51:27.759Z,-0.92
2022-12-18T19:53:58.809Z,-0.98
2022-12-18T19:56:27.724Z,-1.03
2022-12-18T19:58:54.592Z,-1.04
2022-12-18T20:01:23.336Z,-1.05
2022-12-18T20:03:51.620Z,-1.08
2022-12-18T20:06:32.698Z,-1.11
2022-12-18T20:09:04.887Z,-1.13
2022-12-18T20:11:32.773Z,-1.13
2022-12-18T20:14:02.559Z,-1.17
2022-12-18T20:16:29.599Z,-1.19
2022-12-18T20:18:57.677Z,-1.19
2022-12-18T20:21:25.280Z,-1.22
2022-12-18T20:23:52.206Z,-1.23
2022-12-18T20:26:19.290Z,-1.23
2022-12-18T20:28:45.731Z,-1.23
2022-12-18T20:31:13.763Z,-1.23
2022-12-18T20:33:41.792Z,-1.23
2022-12-18T20:36:12.865Z,-1.23
2022-12-18T20:38:39.558Z,-1.22
2022-12-18T20:41:09.812Z,-1.23
2022-12-18T20:43:36.600Z,-1.23
2022-12-18T20:46:05.426Z,-1.24
2022-12-18T20:48:32.924Z,-1.22
2022-12-18T20:51:02.095Z,-1.21
2022-12-18T20:53:30.519Z,-1.23
2022-12-18T20:55:56.894Z,-1.21
2022-12-18T20:58:23.334Z,-1.21
2022-12-18T21:00:50.032Z,-1.21
2022-12-18T21:03:17.802Z,-1.22
2022-12-18T21:05:44.385Z,-1.22
2022-12-18T21:08:10.830Z,-1.22
2022-12-18T21:10:39.267Z,-1.22
2022-12-18T21:13:08.630Z,-1.22
2022-12-18T21:15:36.769Z,-1.22
2022-12-18T21:18:03.224Z,-1.22
2022-12-18T21:20:29.916Z,-1.22
2022-12-18T21:22:58.404Z,-1.21
2022-12-18T21:25:32.374Z,-1.18
2022-12-18T21:27:58.766Z,-1.17
2022-12-18T21:30:25.217Z,-1.19
2022-12-18T21:32:51.645Z,-1.17
2022-12-18T21:35:18.312Z,-1.16
2022-12-18T21:37:46.890Z,-1.13
2022-12-18T21:40:13.722Z,-1.13
2022-12-18T21:42:58.576Z,-1.11
2022-12-18T21:45:24.912Z,-1.10
2022-12-18T21:47:51.309Z,-1.09
2022-12-18T21:50:17.792Z,-1.07
2022-12-18T21:52:44.295Z,-1.07
2022-12-18T21:55:10.723Z,-1.07
2022-12-18T21:57:39.954Z,-1.06
2022-12-18T22:00:11.229Z,-1.03
2022-12-18T22:02:45.252Z,-1.03
2022-12-18T22:05:11.757Z,-1.04
2022-12-18T22:07:38.420Z,-1.00
2022-12-18T22:10:05.185Z,-1.00
2022-12-18T22:12:43.450Z,-0.99
2022-12-18T22:15:12.008Z,-0.97
2022-12-18T22:17:40.782Z,-1.00
2022-12-18T22:20:09.229Z,-1.00
2022-12-18T22:22:35.600Z,-0.97
2022-12-18T22:25:02.259Z,-0.92
2022-12-18T22:27:28.695Z,-0.88
2022-12-18T22:30:04.033Z,-0.85
2022-12-18T22:32:32.153Z,-0.85
2022-12-18T22:35:10.405Z,-0.82
2022-12-18T22:37:39.276Z,-0.77
2022-12-18T22:40:06.262Z,-0.74
2022-12-18T22:42:34.110Z,-0.73
2022-12-18T22:45:00.648Z,-0.70
2022-12-18T22:47:30.003Z,-0.70
2022-12-18T22:49:57.679Z,-0.70
2022-12-18T22:52:24.871Z,-0.65
2022-12-18T22:54:53.523Z,-0.65
2022-12-18T22:57:21.471Z,-0.64
2022-12-18T22:59:47.859Z,-0.66
2022-12-18T23:02:14.333Z,-0.62
2022-12-18T23:04:40.885Z,-0.61
2022-12-18T23:07:07.387Z,-0.62
2022-12-18T23:09:34.020Z,-0.61
2022-12-18T23:12:00.684Z,-0.55
2022-12-18T23:14:28.386Z,-0.50
2022-12-18T23:16:54.850Z,-0.45
2022-12-18T23:19:23.521Z,-0.44
2022-12-18T23:21:50.858Z,-0.38
2022-12-18T23:24:17.522Z,-0.41
2022-12-18T23:26:43.909Z,-0.45
2022-12-18T23:29:10.329Z,-0.45
2022-12-18T23:31:38.939Z,-0.40
2022-12-18T23:34:06.804Z,-0.32
2022-12-18T23:36:45.854Z,-0.28
2022-12-18T23:39:28.071Z,-0.25
2022-12-18T23:41:59.754Z,-0.22
2022-12-18T23:44:26.265Z,-0.19
2022-12-18T23:46:52.736Z,-0.17
2022-12-18T23:49:19.206Z,-0.17
2022-12-18T23:51:45.649Z,-0.18
2022-12-18T23:54:12.013Z,-0.17
2022-12-18T23:56:38.491Z,-0.14
2022-12-18T23:59:04.951Z,-0.12
